Main page
METAR-TAF:

METAR-TAF

Airports :

Chennai, India

Chennai International Airport

latitude: 13-00N, longitude: 080-11E, elevation: 10 m

Current weather observation

The report was made 21 minutes ago, at 11:00 UTC
Wind 12 kt from the Southeast
Temperature 34°C
Humidity 63%
Pressure 1004 hPa
Visibility: 7000 m
Few clouds at a height of 2000 ft

METAR: VOMM 261100Z 13012KT 7000 FEW020 34/26 Q1004 NOSIG

Time: 16:51 (11:21 UTC)

Forecast

The report was made 6 hours and 21 minutes ago, at 05:00 UTC
Forecast valid from 26 at 06 UTC to 27 at 12 UTC
Wind 10 kt from the South
Visibility: 6000 m
Few clouds at a height of 2000 ft
Becoming
from 26 at 08 UTC to 26 at 09 UTC
Wind 10 kt from the East/Southeast
Becoming
from 26 at 21 UTC to 26 at 22 UTC
Wind 10 kt from the South/Southwest
Becoming
from 27 at 08 UTC to 27 at 09 UTC
Wind 10 kt from the East/Southeast

TAF: VOMM 260500Z 2606/2712 18010KT 6000 FEW020 BECMG 2608/2609 12010KT BECMG 2621/2622 21010KT BECMG 2708/2709 12010KT

Weather observations and forecasts of more than 4000 airports (METAR and TAF reports).

The available stations are represented by yellow and red dots on the map.

Hover mouse over dot to see the name of the station.

Then click to see weather observations and forecasts.

To change the map : click on the green buttons with a black cross to zoom in, on the green button with a dash to zoom out, or on the green arrows for adjacent maps.


METAR-TAF: